sensor_id;sensor_type;location;lat;lon;timestamp;pressure;altitude;pressure_sealevel;temperature;humidity
46087;BME280;31824;49.648;8.640;2023-03-14T06:52:58;98227.03;;;9.96;100.00
46087;BME280;31824;49.648;8.640;2023-03-14T06:56:03;98228.75;;;9.95;100.00
46087;BME280;31824;49.648;8.640;2023-03-14T06:59:07;98234.28;;;10.00;100.00
46087;BME280;31824;49.648;8.640;2023-03-14T07:02:11;98224.69;;;10.01;100.00
46087;BME280;31824;49.648;8.640;2023-03-14T07:05:17;98231.94;;;10.05;100.00
46087;BME280;31824;49.648;8.640;2023-03-14T07:08:23;98221.34;;;10.03;100.00
46087;BME280;31824;49.648;8.640;2023-03-14T07:11:26;98225.78;;;10.04;100.00
46087;BME280;31824;49.648;8.640;2023-03-14T07:14:29;98219.84;;;10.07;100.00
46087;BME280;31824;49.648;8.640;2023-03-14T07:17:31;98214.69;;;10.08;100.00
46087;BME280;31824;49.648;8.640;2023-03-14T07:20:34;98197.34;;;10.10;100.00
46087;BME280;31824;49.648;8.640;2023-03-14T07:23:40;98192.16;;;10.12;100.00
46087;BME280;31824;49.648;8.640;2023-03-14T07:26:45;98203.75;;;10.16;100.00
46087;BME280;31824;49.648;8.640;2023-03-14T07:29:48;98201.34;;;10.19;100.00
46087;BME280;31824;49.648;8.640;2023-03-14T07:32:52;98204.75;;;10.18;100.00
46087;BME280;31824;49.648;8.640;2023-03-14T07:36:14;98217.34;;;10.23;100.00
46087;BME280;31824;49.648;8.640;2023-03-14T07:39:22;98220.44;;;10.31;100.00
46087;BME280;31824;49.648;8.640;2023-03-14T07:42:47;98231.03;;;10.33;100.00
46087;BME280;31824;49.648;8.640;2023-03-14T07:46:00;98239.22;;;10.37;100.00
46087;BME280;31824;49.648;8.640;2023-03-14T07:49:03;98235.69;;;10.37;100.00
46087;BME280;31824;49.648;8.640;2023-03-14T07:52:08;98239.44;;;10.40;100.00
46087;BME280;31824;49.648;8.640;2023-03-14T07:55:16;98248.28;;;10.42;100.00
46087;BME280;31824;49.648;8.640;2023-03-14T07:58:19;98244.41;;;10.51;100.00
46087;BME280;31824;49.648;8.640;2023-03-14T08:01:24;98241.53;;;10.61;100.00
46087;BME280;31824;49.648;8.640;2023-03-14T08:04:27;98239.28;;;10.82;100.00
46087;BME280;31824;49.648;8.640;2023-03-14T08:07:29;98240.38;;;10.86;100.00
46087;BME280;31824;49.648;8.640;2023-03-14T08:10:33;98252.78;;;10.88;100.00
46087;BME280;31824;49.648;8.640;2023-03-14T08:13:36;98248.25;;;10.86;100.00
46087;BME280;31824;49.648;8.640;2023-03-14T08:16:39;98244.44;;;10.80;100.00
46087;BME280;31824;49.648;8.640;2023-03-14T08:19:42;98254.84;;;10.79;100.00
46087;BME280;31824;49.648;8.640;2023-03-14T08:22:44;98262.81;;;10.80;100.00
46087;BME280;31824;49.648;8.640;2023-03-14T08:25:50;98257.56;;;10.80;100.00
46087;BME280;31824;49.648;8.640;2023-03-14T08:28:53;98263.63;;;10.79;100.00
46087;BME280;31824;49.648;8.640;2023-03-14T08:31:55;98262.47;;;10.74;100.00
46087;BME280;31824;49.648;8.640;2023-03-14T08:34:58;98259.00;;;10.75;100.00
46087;BME280;31824;49.648;8.640;2023-03-14T08:38:00;98254.78;;;10.77;100.00
46087;BME280;31824;49.648;8.640;2023-03-14T08:41:08;98250.72;;;10.83;100.00
46087;BME280;31824;49.648;8.640;2023-03-14T08:44:11;98257.50;;;10.79;100.00
46087;BME280;31824;49.648;8.640;2023-03-14T08:47:14;98252.59;;;10.85;100.00
46087;BME280;31824;49.648;8.640;2023-03-14T08:50:18;98249.88;;;10.84;100.00
46087;BME280;31824;49.648;8.640;2023-03-14T08:53:21;98256.84;;;10.83;100.00
46087;BME280;31824;49.648;8.640;2023-03-14T08:56:26;98260.94;;;10.93;100.00
46087;BME280;31824;49.648;8.640;2023-03-14T08:59:28;98248.97;;;10.98;100.00
46087;BME280;31824;49.648;8.640;2023-03-14T09:02:30;98244.72;;;11.00;100.00
46087;BME280;31824;49.648;8.640;2023-03-14T09:05:33;98239.84;;;11.06;100.00
46087;BME280;31824;49.648;8.640;2023-03-14T09:08:40;98248.25;;;11.15;100.00
46087;BME280;31824;49.648;8.640;2023-03-14T09:11:44;98248.16;;;11.29;100.00
46087;BME280;31824;49.648;8.640;2023-03-14T09:14:47;98245.69;;;11.32;100.00
46087;BME280;31824;49.648;8.640;2023-03-14T09:17:50;98242.25;;;11.48;100.00
46087;BME280;31824;49.648;8.640;2023-03-14T09:20:55;98246.53;;;11.62;100.00
46087;BME280;31824;49.648;8.640;2023-03-14T09:23:57;98257.53;;;11.55;100.00
46087;BME280;31824;49.648;8.640;2023-03-14T09:27:01;98243.38;;;11.53;100.00
46087;BME280;31824;49.648;8.640;2023-03-14T09:38:54;98236.94;;;11.63;100.00
46087;BME280;31824;49.648;8.640;2023-03-14T09:41:58;98247.72;;;11.68;100.00
46087;BME280;31824;49.648;8.640;2023-03-14T09:45:09;98239.50;;;11.61;100.00
46087;BME280;31824;49.648;8.640;2023-03-14T09:48:15;98249.16;;;11.62;100.00
46087;BME280;31824;49.648;8.640;2023-03-14T09:51:20;98246.81;;;11.67;100.00
46087;BME280;31824;49.648;8.640;2023-03-14T09:54:31;98256.28;;;11.48;100.00
46087;BME280;31824;49.648;8.640;2023-03-14T09:57:35;98260.56;;;11.46;100.00
46087;BME280;31824;49.648;8.640;2023-03-14T10:00:38;98271.06;;;11.46;100.00
46087;BME280;31824;49.648;8.640;2023-03-14T10:03:41;98262.56;;;11.36;100.00
46087;BME280;31824;49.648;8.640;2023-03-14T10:06:43;98258.38;;;11.39;100.00
46087;BME280;31824;49.648;8.640;2023-03-14T10:09:50;98282.75;;;11.37;100.00
46087;BME280;31824;49.648;8.640;2023-03-14T10:12:55;98273.81;;;11.33;100.00
46087;BME280;31824;49.648;8.640;2023-03-14T10:16:00;98274.50;;;11.45;100.00
46087;BME280;31824;49.648;8.640;2023-03-14T10:19:05;98263.41;;;11.66;100.00
46087;BME280;31824;49.648;8.640;2023-03-14T10:22:29;98266.53;;;11.59;100.00
46087;BME280;31824;49.648;8.640;2023-03-14T10:25:35;98273.31;;;11.55;100.00
46087;BME280;31824;49.648;8.640;2023-03-14T10:28:39;98264.41;;;11.53;100.00
46087;BME280;31824;49.648;8.640;2023-03-14T10:31:52;98273.88;;;11.49;100.00
46087;BME280;31824;49.648;8.640;2023-03-14T10:35:19;98272.78;;;11.46;100.00
46087;BME280;31824;49.648;8.640;2023-03-14T10:38:24;98257.81;;;11.45;100.00
46087;BME280;31824;49.648;8.640;2023-03-14T10:41:31;98268.25;;;11.43;100.00
46087;BME280;31824;49.648;8.640;2023-03-14T10:44:35;98256.22;;;11.32;100.00
46087;BME280;31824;49.648;8.640;2023-03-14T10:47:48;98260.84;;;11.21;100.00
46087;BME280;31824;49.648;8.640;2023-03-14T10:50:55;98268.72;;;11.21;100.00
46087;BME280;31824;49.648;8.640;2023-03-14T10:54:00;98257.97;;;11.17;100.00
46087;BME280;31824;49.648;8.640;2023-03-14T10:57:04;98272.25;;;11.07;100.00
46087;BME280;31824;49.648;8.640;2023-03-14T11:00:12;98270.63;;;10.94;100.00
46087;BME280;31824;49.648;8.640;2023-03-14T11:03:16;98270.25;;;10.88;100.00
46087;BME280;31824;49.648;8.640;2023-03-14T11:06:24;98278.41;;;10.77;100.00
46087;BME280;31824;49.648;8.640;2023-03-14T11:09:34;98270.53;;;10.77;100.00
46087;BME280;31824;49.648;8.640;2023-03-14T11:12:45;98284.09;;;10.70;100.00
46087;BME280;31824;49.648;8.640;2023-03-14T11:15:59;98292.22;;;10.60;100.00
46087;BME280;31824;49.648;8.640;2023-03-14T11:19:11;98295.47;;;10.56;100.00
46087;BME280;31824;49.648;8.640;2023-03-14T11:22:25;98294.19;;;10.49;100.00
46087;BME280;31824;49.648;8.640;2023-03-14T11:25:32;98305.69;;;10.51;100.00
46087;BME280;31824;49.648;8.640;2023-03-14T11:28:39;98303.97;;;10.52;100.00
46087;BME280;31824;49.648;8.640;2023-03-14T11:31:45;98316.91;;;10.49;100.00
46087;BME280;31824;49.648;8.640;2023-03-14T11:34:51;98329.50;;;10.54;100.00
46087;BME280;31824;49.648;8.640;2023-03-14T11:37:56;98311.94;;;10.53;100.00
46087;BME280;31824;49.648;8.640;2023-03-14T11:41:09;98310.91;;;10.51;100.00
46087;BME280;31824;49.648;8.640;2023-03-14T11:44:17;98313.69;;;10.53;100.00
46087;BME280;31824;49.648;8.640;2023-03-14T11:47:23;98326.81;;;10.53;100.00
46087;BME280;31824;49.648;8.640;2023-03-14T11:50:28;98334.69;;;10.53;100.00
46087;BME280;31824;49.648;8.640;2023-03-14T11:53:39;98343.78;;;10.44;100.00
46087;BME280;31824;49.648;8.640;2023-03-14T11:56:48;98350.94;;;10.34;100.00
46087;BME280;31824;49.648;8.640;2023-03-14T11:59:55;98368.03;;;10.27;100.00
46087;BME280;31824;49.648;8.640;2023-03-14T12:03:02;98403.13;;;10.29;100.00
46087;BME280;31824;49.648;8.640;2023-03-14T12:06:13;98436.84;;;10.36;100.00
46087;BME280;31824;49.648;8.640;2023-03-14T12:09:21;98429.19;;;10.53;100.00
46087;BME280;31824;49.648;8.640;2023-03-14T12:12:27;98427.13;;;10.62;100.00
46087;BME280;31824;49.648;8.640;2023-03-14T12:15:36;98441.38;;;10.66;100.00
46087;BME280;31824;49.648;8.640;2023-03-14T12:18:40;98459.06;;;10.55;100.00
46087;BME280;31824;49.648;8.640;2023-03-14T12:21:47;98462.91;;;10.46;100.00
46087;BME280;31824;49.648;8.640;2023-03-14T12:24:53;98479.88;;;10.38;100.00
46087;BME280;31824;49.648;8.640;2023-03-14T12:28:16;98509.03;;;10.16;100.00
46087;BME280;31824;49.648;8.640;2023-03-14T12:31:48;98553.59;;;9.39;100.00
46087;BME280;31824;49.648;8.640;2023-03-14T12:34:50;98550.09;;;9.77;100.00
46087;BME280;31824;49.648;8.640;2023-03-14T12:37:53;98566.06;;;9.93;100.00
46087;BME280;31824;49.648;8.640;2023-03-14T12:41:00;98572.44;;;9.97;100.00
46087;BME280;31824;49.648;8.640;2023-03-14T12:44:41;98581.84;;;10.07;100.00
46087;BME280;31824;49.648;8.640;2023-03-14T12:47:53;98585.09;;;10.16;100.00
46087;BME280;31824;49.648;8.640;2023-03-14T12:51:01;98587.63;;;10.28;100.00
46087;BME280;31824;49.648;8.640;2023-03-14T12:54:15;98596.06;;;10.36;100.00
46087;BME280;31824;49.648;8.640;2023-03-14T12:57:26;98614.66;;;10.52;100.00
46087;BME280;31824;49.648;8.640;2023-03-14T13:00:32;98622.03;;;10.44;100.00
46087;BME280;31824;49.648;8.640;2023-03-14T13:03:44;98643.25;;;10.22;100.00
46087;BME280;31824;49.648;8.640;2023-03-14T13:06:52;98649.16;;;10.06;100.00
46087;BME280;31824;49.648;8.640;2023-03-14T13:10:01;98672.63;;;9.91;100.00
46087;BME280;31824;49.648;8.640;2023-03-14T13:13:14;98668.31;;;10.05;100.00
46087;BME280;31824;49.648;8.640;2023-03-14T13:16:19;98683.84;;;10.02;100.00
46087;BME280;31824;49.648;8.640;2023-03-14T13:19:26;98690.56;;;10.10;100.00
46087;BME280;31824;49.648;8.640;2023-03-14T13:22:32;98701.06;;;10.24;100.00
46087;BME280;31824;49.648;8.640;2023-03-14T13:25:35;98705.81;;;10.16;100.00
46087;BME280;31824;49.648;8.640;2023-03-14T13:28:37;98706.16;;;10.34;100.00
46087;BME280;31824;49.648;8.640;2023-03-14T13:31:43;98726.34;;;10.10;100.00
46087;BME280;31824;49.648;8.640;2023-03-14T13:34:47;98737.03;;;10.00;100.00
46087;BME280;31824;49.648;8.640;2023-03-14T13:37:56;98732.97;;;9.79;100.00
46087;BME280;31824;49.648;8.640;2023-03-14T13:41:11;98794.41;;;9.83;100.00
46087;BME280;31824;49.648;8.640;2023-03-14T13:44:15;98796.81;;;9.80;100.00
46087;BME280;31824;49.648;8.640;2023-03-14T13:47:20;98826.81;;;9.36;100.00
46087;BME280;31824;49.648;8.640;2023-03-14T13:50:24;98837.56;;;8.82;100.00
46087;BME280;31824;49.648;8.640;2023-03-14T13:53:26;98842.28;;;8.98;100.00
46087;BME280;31824;49.648;8.640;2023-03-14T13:56:30;98849.41;;;9.00;100.00
46087;BME280;31824;49.648;8.640;2023-03-14T13:59:34;98861.28;;;8.95;100.00
46087;BME280;31824;49.648;8.640;2023-03-14T14:02:38;98862.81;;;8.81;100.00
46087;BME280;31824;49.648;8.640;2023-03-14T14:05:44;98883.22;;;8.63;100.00
46087;BME280;31824;49.648;8.640;2023-03-14T14:08:46;98882.09;;;8.59;100.00
46087;BME280;31824;49.648;8.640;2023-03-14T14:11:51;98869.53;;;8.55;100.00
46087;BME280;31824;49.648;8.640;2023-03-14T14:15:18;98903.56;;;8.77;100.00
46087;BME280;31824;49.648;8.640;2023-03-14T14:18:24;98896.66;;;9.24;100.00
46087;BME280;31824;49.648;8.640;2023-03-14T14:21:29;98905.84;;;9.76;100.00
46087;BME280;31824;49.648;8.640;2023-03-14T14:24:34;98905.31;;;11.04;100.00
46087;BME280;31824;49.648;8.640;2023-03-14T14:27:38;98912.88;;;10.13;100.00
46087;BME280;31824;49.648;8.640;2023-03-14T14:30:44;98920.53;;;9.86;100.00
46087;BME280;31824;49.648;8.640;2023-03-14T14:33:53;98931.72;;;9.84;100.00
46087;BME280;31824;49.648;8.640;2023-03-14T14:36:57;98940.03;;;9.78;100.00
46087;BME280;31824;49.648;8.640;2023-03-14T14:40:05;98949.50;;;10.11;100.00
46087;BME280;31824;49.648;8.640;2023-03-14T14:43:14;98976.88;;;9.79;100.00
46087;BME280;31824;49.648;8.640;2023-03-14T14:46:18;98977.44;;;9.75;100.00
46087;BME280;31824;49.648;8.640;2023-03-14T14:49:21;98982.31;;;9.59;100.00
46087;BME280;31824;49.648;8.640;2023-03-14T14:52:36;98973.31;;;9.67;100.00
46087;BME280;31824;49.648;8.640;2023-03-14T14:55:40;98969.09;;;9.69;100.00
46087;BME280;31824;49.648;8.640;2023-03-14T14:58:44;99024.56;;;9.52;100.00
46087;BME280;31824;49.648;8.640;2023-03-14T15:01:46;98994.78;;;9.39;100.00
46087;BME280;31824;49.648;8.640;2023-03-14T15:04:51;98996.06;;;9.44;100.00
46087;BME280;31824;49.648;8.640;2023-03-14T15:07:54;99010.00;;;9.55;100.00
46087;BME280;31824;49.648;8.640;2023-03-14T15:10:57;99003.41;;;9.72;100.00
46087;BME280;31824;49.648;8.640;2023-03-14T15:13:59;99029.31;;;9.79;100.00
46087;BME280;31824;49.648;8.640;2023-03-14T15:17:01;99014.84;;;9.85;100.00
46087;BME280;31824;49.648;8.640;2023-03-14T15:20:09;99023.47;;;9.72;100.00
46087;BME280;31824;49.648;8.640;2023-03-14T15:23:15;99036.16;;;9.43;100.00
46087;BME280;31824;49.648;8.640;2023-03-14T15:26:19;99036.16;;;9.43;100.00
46087;BME280;31824;49.648;8.640;2023-03-14T15:29:22;99051.72;;;9.30;100.00
46087;BME280;31824;49.648;8.640;2023-03-14T15:32:23;99047.41;;;9.31;100.00
46087;BME280;31824;49.648;8.640;2023-03-14T15:35:26;99045.50;;;9.40;100.00
46087;BME280;31824;49.648;8.640;2023-03-14T15:38:29;99052.22;;;9.36;100.00
46087;BME280;31824;49.648;8.640;2023-03-14T15:41:31;99050.31;;;9.45;100.00
46087;BME280;31824;49.648;8.640;2023-03-14T15:44:33;99056.28;;;9.55;100.00
46087;BME280;31824;49.648;8.640;2023-03-14T15:47:35;99062.06;;;9.96;100.00
46087;BME280;31824;49.648;8.640;2023-03-14T15:50:37;99061.25;;;10.55;100.00
46087;BME280;31824;49.648;8.640;2023-03-14T15:53:40;99085.88;;;10.81;100.00
46087;BME280;31824;49.648;8.640;2023-03-14T15:56:44;99089.16;;;11.02;100.00
46087;BME280;31824;49.648;8.640;2023-03-14T15:59:49;99074.94;;;10.63;100.00
46087;BME280;31824;49.648;8.640;2023-03-14T16:02:50;99087.28;;;10.52;100.00
46087;BME280;31824;49.648;8.640;2023-03-14T16:05:52;99086.47;;;10.65;100.00
46087;BME280;31824;49.648;8.640;2023-03-14T16:08:56;99104.06;;;10.54;100.00
46087;BME280;31824;49.648;8.640;2023-03-14T16:11:58;99091.09;;;10.22;100.00
46087;BME280;31824;49.648;8.640;2023-03-14T16:15:00;99092.31;;;10.03;100.00
46087;BME280;31824;49.648;8.640;2023-03-14T16:18:01;99100.38;;;9.83;100.00
46087;BME280;31824;49.648;8.640;2023-03-14T16:21:21;99103.81;;;9.93;100.00
46087;BME280;31824;49.648;8.640;2023-03-14T16:24:24;99107.28;;;10.04;100.00
46087;BME280;31824;49.648;8.640;2023-03-14T16:27:27;99109.56;;;9.77;100.00
46087;BME280;31824;49.648;8.640;2023-03-14T16:30:28;99115.47;;;9.63;100.00
46087;BME280;31824;49.648;8.640;2023-03-14T16:33:31;99110.06;;;9.50;100.00
46087;BME280;31824;49.648;8.640;2023-03-14T16:36:33;99115.47;;;9.41;100.00
46087;BME280;31824;49.648;8.640;2023-03-14T16:39:36;99128.09;;;9.35;100.00
46087;BME280;31824;49.648;8.640;2023-03-14T16:42:58;99120.00;;;9.32;100.00
46087;BME280;31824;49.648;8.640;2023-03-14T16:46:17;99130.16;;;9.17;100.00
46087;BME280;31824;49.648;8.640;2023-03-14T16:49:19;99133.44;;;9.14;100.00
46087;BME280;31824;49.648;8.640;2023-03-14T16:52:21;99141.84;;;9.10;100.00
46087;BME280;31824;49.648;8.640;2023-03-14T16:55:25;99147.13;;;9.00;100.00
46087;BME280;31824;49.648;8.640;2023-03-14T16:58:27;99154.88;;;8.98;100.00
46087;BME280;31824;49.648;8.640;2023-03-14T17:01:32;99162.75;;;8.88;100.00
46087;BME280;31824;49.648;8.640;2023-03-14T17:04:34;99169.22;;;8.71;100.00
46087;BME280;31824;49.648;8.640;2023-03-14T17:07:36;99167.16;;;8.56;100.00
46087;BME280;31824;49.648;8.640;2023-03-14T17:10:39;99170.53;;;8.55;100.00
46087;BME280;31824;49.648;8.640;2023-03-14T17:13:42;99172.50;;;8.37;100.00
46087;BME280;31824;49.648;8.640;2023-03-14T17:16:45;99180.88;;;8.43;100.00
46087;BME280;31824;49.648;8.640;2023-03-14T17:19:48;99194.50;;;8.39;100.00
46087;BME280;31824;49.648;8.640;2023-03-14T17:22:49;99205.47;;;8.25;100.00
46087;BME280;31824;49.648;8.640;2023-03-14T17:25:53;99218.97;;;8.30;100.00
46087;BME280;31824;49.648;8.640;2023-03-14T17:28:55;99226.13;;;8.32;100.00
46087;BME280;31824;49.648;8.640;2023-03-14T17:31:59;99231.13;;;8.29;100.00
46087;BME280;31824;49.648;8.640;2023-03-14T17:35:02;99250.91;;;8.25;100.00
46087;BME280;31824;49.648;8.640;2023-03-14T17:38:05;99251.53;;;8.23;100.00
46087;BME280;31824;49.648;8.640;2023-03-14T17:41:10;99262.50;;;8.08;100.00
46087;BME280;31824;49.648;8.640;2023-03-14T17:44:12;99267.06;;;7.90;100.00
46087;BME280;31824;49.648;8.640;2023-03-14T17:47:14;99269.81;;;7.52;100.00
46087;BME280;31824;49.648;8.640;2023-03-14T17:50:19;99284.97;;;7.56;100.00
46087;BME280;31824;49.648;8.640;2023-03-14T17:53:22;99285.34;;;7.51;100.00
46087;BME280;31824;49.648;8.640;2023-03-14T17:56:25;99299.53;;;7.15;100.00
46087;BME280;31824;49.648;8.640;2023-03-14T17:59:29;99307.09;;;7.41;100.00
46087;BME280;31824;49.648;8.640;2023-03-14T18:02:31;99316.94;;;7.24;100.00
46087;BME280;31824;49.648;8.640;2023-03-14T18:05:37;99320.50;;;7.06;100.00
46087;BME280;31824;49.648;8.640;2023-03-14T18:08:42;99330.72;;;6.94;100.00
46087;BME280;31824;49.648;8.640;2023-03-14T18:11:46;99346.63;;;6.87;100.00
46087;BME280;31824;49.648;8.640;2023-03-14T18:14:50;99352.97;;;6.80;100.00
46087;BME280;31824;49.648;8.640;2023-03-14T18:17:52;99363.25;;;6.79;100.00
46087;BME280;31824;49.648;8.640;2023-03-14T18:20:53;99373.97;;;6.82;100.00
46087;BME280;31824;49.648;8.640;2023-03-14T18:23:56;99371.25;;;6.71;100.00
46087;BME280;31824;49.648;8.640;2023-03-14T18:26:59;99385.81;;;6.78;100.00
46087;BME280;31824;49.648;8.640;2023-03-14T18:30:02;99394.94;;;6.00;100.00
46087;BME280;31824;49.648;8.640;2023-03-14T18:33:04;99406.22;;;5.91;100.00
46087;BME280;31824;49.648;8.640;2023-03-14T18:36:06;99413.56;;;6.22;100.00
46087;BME280;31824;49.648;8.640;2023-03-14T18:39:08;99418.25;;;6.44;100.00
46087;BME280;31824;49.648;8.640;2023-03-14T18:42:12;99421.13;;;6.47;100.00
46087;BME280;31824;49.648;8.640;2023-03-14T18:45:15;99432.19;;;6.53;100.00
46087;BME280;31824;49.648;8.640;2023-03-14T18:48:18;99439.53;;;6.48;100.00
46087;BME280;31824;49.648;8.640;2023-03-14T18:51:20;99440.97;;;6.45;100.00
46087;BME280;31824;49.648;8.640;2023-03-14T18:54:23;99451.25;;;6.34;100.00
46087;BME280;31824;49.648;8.640;2023-03-14T18:57:26;99461.59;;;6.06;100.00
46087;BME280;31824;49.648;8.640;2023-03-14T19:00:31;99461.31;;;5.77;100.00
46087;BME280;31824;49.648;8.640;2023-03-14T19:03:34;99465.94;;;5.62;100.00
46087;BME280;31824;49.648;8.640;2023-03-14T19:06:38;99477.88;;;5.51;100.00
46087;BME280;31824;49.648;8.640;2023-03-14T19:09:42;99482.91;;;5.41;100.00
46087;BME280;31824;49.648;8.640;2023-03-14T19:12:50;99503.75;;;5.32;100.00
46087;BME280;31824;49.648;8.640;2023-03-14T19:15:52;99510.31;;;5.29;100.00
46087;BME280;31824;49.648;8.640;2023-03-14T19:18:54;99505.72;;;5.26;100.00
46087;BME280;31824;49.648;8.640;2023-03-14T19:21:56;99511.22;;;5.12;100.00
46087;BME280;31824;49.648;8.640;2023-03-14T19:24:59;99518.53;;;5.07;100.00
46087;BME280;31824;49.648;8.640;2023-03-14T19:28:09;99520.69;;;5.11;100.00
46087;BME280;31824;49.648;8.640;2023-03-14T19:31:11;99531.09;;;5.11;100.00
46087;BME280;31824;49.648;8.640;2023-03-14T19:34:14;99543.81;;;4.99;100.00
46087;BME280;31824;49.648;8.640;2023-03-14T19:37:16;99553.13;;;4.97;100.00
46087;BME280;31824;49.648;8.640;2023-03-14T19:40:18;99558.63;;;4.92;100.00
46087;BME280;31824;49.648;8.640;2023-03-14T19:43:21;99573.31;;;4.91;100.00
46087;BME280;31824;49.648;8.640;2023-03-14T19:46:23;99574.38;;;4.93;100.00
46087;BME280;31824;49.648;8.640;2023-03-14T19:49:25;99579.28;;;4.90;100.00
46087;BME280;31824;49.648;8.640;2023-03-14T19:52:31;99576.38;;;4.87;100.00
46087;BME280;31824;49.648;8.640;2023-03-14T19:55:34;99590.13;;;4.86;100.00
46087;BME280;31824;49.648;8.640;2023-03-14T19:58:38;99605.31;;;4.90;100.00
46087;BME280;31824;49.648;8.640;2023-03-14T20:01:40;99618.75;;;4.86;100.00
46087;BME280;31824;49.648;8.640;2023-03-14T20:04:47;99618.00;;;4.87;100.00
46087;BME280;31824;49.648;8.640;2023-03-14T20:07:50;99639.94;;;4.73;100.00
46087;BME280;31824;49.648;8.640;2023-03-14T20:10:52;99638.72;;;4.69;100.00
46087;BME280;31824;49.648;8.640;2023-03-14T20:13:55;99641.28;;;4.45;100.00
46087;BME280;31824;49.648;8.640;2023-03-14T20:16:57;99653.00;;;4.16;100.00
46087;BME280;31824;49.648;8.640;2023-03-14T20:20:00;99678.59;;;3.49;100.00
46087;BME280;31824;49.648;8.640;2023-03-14T20:23:02;99700.72;;;2.99;100.00
46087;BME280;31824;49.648;8.640;2023-03-14T20:26:07;99723.81;;;2.82;100.00
46087;BME280;31824;49.648;8.640;2023-03-14T20:29:11;99730.41;;;2.64;100.00
46087;BME280;31824;49.648;8.640;2023-03-14T20:32:16;99738.84;;;2.32;100.00
46087;BME280;31824;49.648;8.640;2023-03-14T20:35:19;99742.78;;;2.29;100.00
46087;BME280;31824;49.648;8.640;2023-03-14T20:38:24;99744.66;;;2.15;100.00
46087;BME280;31824;49.648;8.640;2023-03-14T20:41:27;99757.63;;;2.15;100.00
46087;BME280;31824;49.648;8.640;2023-03-14T20:44:30;99756.75;;;1.86;100.00
46087;BME280;31824;49.648;8.640;2023-03-14T20:47:33;99756.19;;;1.89;100.00
46087;BME280;31824;49.648;8.640;2023-03-14T20:50:35;99764.19;;;1.61;100.00
46087;BME280;31824;49.648;8.640;2023-03-14T20:53:37;99781.56;;;1.69;100.00
46087;BME280;31824;49.648;8.640;2023-03-14T20:56:39;99788.78;;;1.72;100.00
46087;BME280;31824;49.648;8.640;2023-03-14T20:59:42;99785.66;;;1.67;100.00
46087;BME280;31824;49.648;8.640;2023-03-14T21:02:44;99789.88;;;1.89;100.00
46087;BME280;31824;49.648;8.640;2023-03-14T21:05:46;99781.97;;;1.58;100.00
46087;BME280;31824;49.648;8.640;2023-03-14T21:08:48;99795.97;;;1.82;100.00
46087;BME280;31824;49.648;8.640;2023-03-14T21:11:50;99797.09;;;1.77;100.00
46087;BME280;31824;49.648;8.640;2023-03-14T21:14:54;99797.63;;;2.03;100.00
46087;BME280;31824;49.648;8.640;2023-03-14T21:17:56;99803.56;;;1.88;100.00
46087;BME280;31824;49.648;8.640;2023-03-14T21:20:57;99800.81;;;1.72;100.00
46087;BME280;31824;49.648;8.640;2023-03-14T21:24:00;99814.88;;;1.66;100.00
46087;BME280;31824;49.648;8.640;2023-03-14T21:27:03;99822.44;;;1.72;100.00
46087;BME280;31824;49.648;8.640;2023-03-14T21:30:08;99841.50;;;2.01;100.00
46087;BME280;31824;49.648;8.640;2023-03-14T21:33:10;99847.03;;;2.12;100.00
46087;BME280;31824;49.648;8.640;2023-03-14T21:51:06;99869.06;;;1.87;100.00
46087;BME280;31824;49.648;8.640;2023-03-14T21:54:08;99861.66;;;1.97;100.00
46087;BME280;31824;49.648;8.640;2023-03-14T21:57:11;99870.53;;;1.84;100.00
46087;BME280;31824;49.648;8.640;2023-03-14T22:00:16;99862.41;;;2.03;100.00
46087;BME280;31824;49.648;8.640;2023-03-14T22:03:19;99861.66;;;1.97;100.00
46087;BME280;31824;49.648;8.640;2023-03-14T22:06:25;99849.63;;;2.05;100.00
46087;BME280;31824;49.648;8.640;2023-03-14T22:09:27;99867.00;;;2.20;100.00
46087;BME280;31824;49.648;8.640;2023-03-14T22:12:30;99864.06;;;2.17;100.00
46087;BME280;31824;49.648;8.640;2023-03-14T22:15:31;99876.28;;;2.03;100.00
46087;BME280;31824;49.648;8.640;2023-03-14T22:18:33;99881.81;;;1.99;100.00
46087;BME280;31824;49.648;8.640;2023-03-14T22:21:37;99881.63;;;2.27;100.00
46087;BME280;31824;49.648;8.640;2023-03-14T22:24:39;99892.00;;;2.34;100.00
46087;BME280;31824;49.648;8.640;2023-03-14T22:27:40;99899.94;;;2.28;100.00
46087;BME280;31824;49.648;8.640;2023-03-14T22:30:45;99904.22;;;2.21;100.00
46087;BME280;31824;49.648;8.640;2023-03-14T22:33:47;99901.47;;;2.19;100.00
46087;BME280;31824;49.648;8.640;2023-03-14T22:36:50;99908.84;;;2.30;100.00
46087;BME280;31824;49.648;8.640;2023-03-14T22:39:52;99908.84;;;2.23;100.00
46087;BME280;31824;49.648;8.640;2023-03-14T22:42:54;99916.78;;;2.39;100.00
46087;BME280;31824;49.648;8.640;2023-03-14T22:45:59;99927.69;;;2.36;100.00
46087;BME280;31824;49.648;8.640;2023-03-14T22:49:02;99932.69;;;2.35;100.00
46087;BME280;31824;49.648;8.640;2023-03-14T22:52:05;99931.22;;;2.30;100.00
46087;BME280;31824;49.648;8.640;2023-03-14T22:55:08;99944.41;;;2.31;100.00
46087;BME280;31824;49.648;8.640;2023-03-14T22:58:10;99947.34;;;2.34;100.00
46087;BME280;31824;49.648;8.640;2023-03-14T23:01:13;99950.50;;;2.32;100.00
46087;BME280;31824;49.648;8.640;2023-03-14T23:04:15;99966.22;;;2.33;100.00
46087;BME280;31824;49.648;8.640;2023-03-14T23:07:19;99971.59;;;2.28;100.00
46087;BME280;31824;49.648;8.640;2023-03-14T23:10:21;99971.03;;;2.30;100.00
46087;BME280;31824;49.648;8.640;2023-03-14T23:13:23;99969.56;;;2.40;100.00
46087;BME280;31824;49.648;8.640;2023-03-14T23:16:25;99979.38;;;2.42;100.00
46087;BME280;31824;49.648;8.640;2023-03-14T23:19:40;99990.28;;;2.32;100.00
46087;BME280;31824;49.648;8.640;2023-03-14T23:22:44;99994.75;;;2.48;100.00
46087;BME280;31824;49.648;8.640;2023-03-14T23:25:45;99994.56;;;2.46;100.00
46087;BME280;31824;49.648;8.640;2023-03-14T23:28:54;100002.13;;;2.45;100.00